createdAt,value
2022-11-29T00:01:34.856Z,79.44
2022-11-29T00:04:02.637Z,79.75
2022-11-29T00:06:32.087Z,79.41
2022-11-29T00:09:01.677Z,79.86
2022-11-29T00:11:49.237Z,79.23
2022-11-29T00:14:18.174Z,79.76
2022-11-29T00:16:45.469Z,79.75
2022-11-29T00:19:13.311Z,80.47
2022-11-29T00:21:40.442Z,80.34
2022-11-29T00:24:07.588Z,79.50
2022-11-29T00:26:34.524Z,79.33
2022-11-29T00:29:01.951Z,79.75
2022-11-29T00:31:31.596Z,80.53
2022-11-29T00:34:01.001Z,80.15
2022-11-29T00:36:28.038Z,80.26
2022-11-29T00:38:54.749Z,80.52
2022-11-29T00:41:21.660Z,80.42
2022-11-29T00:43:48.673Z,79.86
2022-11-29T00:46:15.648Z,80.11
2022-11-29T00:48:42.514Z,80.08
2022-11-29T00:51:09.771Z,80.22
2022-11-29T00:53:37.498Z,80.25
2022-11-29T00:56:05.359Z,80.49
2022-11-29T00:58:32.699Z,80.25
2022-11-29T01:00:59.622Z,80.28
2022-11-29T01:03:26.489Z,80.46
2022-11-29T01:05:53.424Z,80.35
2022-11-29T01:08:20.256Z,80.50
2022-11-29T01:10:47.131Z,80.10
2022-11-29T01:13:14.130Z,79.42
2022-11-29T01:15:41.637Z,79.51
2022-11-29T01:18:08.425Z,79.63
2022-11-29T01:20:35.253Z,79.41
2022-11-29T01:23:02.051Z,80.34
2022-11-29T01:25:29.467Z,80.33
2022-11-29T01:27:56.228Z,80.79
2022-11-29T01:30:23.107Z,80.81
2022-11-29T01:32:49.909Z,80.52
2022-11-29T01:35:16.716Z,80.32
2022-11-29T01:37:43.518Z,80.75
2022-11-29T01:40:12.102Z,80.68
2022-11-29T01:42:38.852Z,80.58
2022-11-29T01:45:08.544Z,80.70
2022-11-29T01:47:39.909Z,81.09
2022-11-29T01:50:08.272Z,81.51
2022-11-29T01:52:35.046Z,80.69
2022-11-29T01:55:05.849Z,81.12
2022-11-29T01:57:34.978Z,81.41
2022-11-29T02:00:08.857Z,81.71
2022-11-29T02:03:10.454Z,82.61
2022-11-29T02:05:44.517Z,81.85
2022-11-29T02:08:14.521Z,82.11
2022-11-29T02:10:42.287Z,80.81
2022-11-29T02:13:20.392Z,79.99
2022-11-29T02:15:59.653Z,78.75
2022-11-29T02:18:37.224Z,79.43
2022-11-29T02:21:21.802Z,79.90
2022-11-29T02:24:03.405Z,80.82
2022-11-29T02:26:54.875Z,80.18
2022-11-29T02:29:42.640Z,80.24
2022-11-29T02:32:30.638Z,79.98
2022-11-29T02:35:33.450Z,80.11
2022-11-29T02:38:18.702Z,79.29
2022-11-29T02:40:58.036Z,79.57
2022-11-29T02:43:30.744Z,80.60
2022-11-29T02:46:23.443Z,80.45
2022-11-29T02:48:56.749Z,80.46
2022-11-29T02:51:39.265Z,80.17
2022-11-29T02:54:44.483Z,79.20
2022-11-29T02:57:28.085Z,80.07
2022-11-29T03:00:15.052Z,79.77
2022-11-29T03:02:56.970Z,79.18
2022-11-29T03:05:44.817Z,78.88
2022-11-29T03:08:23.545Z,80.04
2022-11-29T03:11:25.871Z,80.40
2022-11-29T03:14:11.279Z,79.38
2022-11-29T03:17:25.790Z,79.31
2022-11-29T03:20:21.228Z,80.11
2022-11-29T03:23:10.484Z,80.35
2022-11-29T03:25:42.556Z,80.03
2022-11-29T03:28:29.089Z,79.71
2022-11-29T03:31:11.324Z,80.43
2022-11-29T03:34:05.991Z,80.75
2022-11-29T03:36:51.120Z,79.76
2022-11-29T03:39:25.489Z,81.08
2022-11-29T03:41:59.014Z,81.14
2022-11-29T03:44:31.903Z,80.34
2022-11-29T03:47:12.727Z,80.10
2022-11-29T03:49:48.041Z,80.26
2022-11-29T03:52:25.053Z,80.75
2022-11-29T03:55:12.081Z,80.92
2022-11-29T03:57:41.567Z,80.97
2022-11-29T04:00:11.101Z,80.95
2022-11-29T04:02:52.633Z,80.90
2022-11-29T04:05:22.444Z,82.17
2022-11-29T04:08:00.823Z,80.65
2022-11-29T04:11:04.723Z,80.98
2022-11-29T04:13:51.713Z,81.52
2022-11-29T04:16:42.986Z,81.73
2022-11-29T04:19:53.649Z,81.65
2022-11-29T04:22:39.420Z,81.65
2022-11-29T04:25:48.238Z,80.56
2022-11-29T04:28:31.306Z,81.14
2022-11-29T04:31:16.528Z,80.74
2022-11-29T04:33:58.396Z,80.68
2022-11-29T04:36:31.130Z,81.53
2022-11-29T04:39:07.916Z,81.31
2022-11-29T04:42:22.955Z,81.23
2022-11-29T04:45:17.324Z,81.28
2022-11-29T04:47:59.242Z,80.27
2022-11-29T04:50:37.864Z,80.97
2022-11-29T04:53:14.851Z,81.18
2022-11-29T04:56:00.623Z,81.10
2022-11-29T04:58:33.094Z,80.90
2022-11-29T05:01:13.167Z,81.31
2022-11-29T05:04:21.137Z,81.12
2022-11-29T05:07:19.168Z,81.44
2022-11-29T05:10:07.753Z,81.24
2022-11-29T05:12:48.475Z,81.10
2022-11-29T05:15:43.397Z,80.50
2022-11-29T05:18:34.070Z,80.77
2022-11-29T05:21:16.712Z,80.97
2022-11-29T05:23:59.509Z,81.26
2022-11-29T05:26:32.519Z,80.75
2022-11-29T05:29:16.177Z,80.66
2022-11-29T05:32:01.837Z,80.91
2022-11-29T05:34:46.627Z,81.29
2022-11-29T05:37:27.102Z,80.97
2022-11-29T05:40:15.180Z,81.85
2022-11-29T05:42:51.631Z,81.19
2022-11-29T05:45:25.720Z,81.44
2022-11-29T05:48:04.616Z,80.96
2022-11-29T05:50:56.245Z,81.05
2022-11-29T05:53:44.507Z,81.41
2022-11-29T05:56:40.576Z,81.11
2022-11-29T05:59:15.411Z,81.29
2022-11-29T06:02:19.686Z,81.04
2022-11-29T06:05:17.764Z,81.27
2022-11-29T06:08:20.144Z,81.75
2022-11-29T06:10:57.715Z,82.09
2022-11-29T06:13:45.519Z,81.57
2022-11-29T06:16:30.819Z,81.60
2022-11-29T06:19:31.874Z,82.08
2022-11-29T06:22:21.371Z,82.00
2022-11-29T06:25:20.299Z,82.03
2022-11-29T06:28:05.880Z,81.66
2022-11-29T06:31:01.641Z,82.56
2022-11-29T06:33:43.554Z,82.43
2022-11-29T06:36:29.132Z,82.78
2022-11-29T06:38:56.156Z,83.02
2022-11-29T06:41:24.250Z,83.14
2022-11-29T06:43:51.563Z,82.66
2022-11-29T06:46:33.714Z,83.24
2022-11-29T06:49:03.941Z,82.99
2022-11-29T06:51:36.365Z,82.67
2022-11-29T06:54:24.283Z,82.34
2022-11-29T06:56:53.876Z,82.12
2022-11-29T06:59:32.963Z,82.30
2022-11-29T07:02:12.719Z,82.28
2022-11-29T07:05:14.148Z,82.33
2022-11-29T07:07:42.161Z,83.40
2022-11-29T07:10:17.104Z,83.54
2022-11-29T07:12:47.738Z,83.37
2022-11-29T07:15:17.067Z,83.24
2022-11-29T07:17:55.876Z,83.73
2022-11-29T07:20:28.398Z,83.66
2022-11-29T07:23:25.535Z,83.61
2022-11-29T07:26:04.321Z,83.80
2022-11-29T07:28:39.557Z,83.73
2022-11-29T07:31:25.565Z,84.40
2022-11-29T07:34:01.096Z,85.64
2022-11-29T07:36:49.085Z,85.46
2022-11-29T07:39:31.585Z,85.43
2022-11-29T07:42:42.876Z,85.72
2022-11-29T07:45:29.982Z,87.40
2022-11-29T07:47:56.742Z,86.94
2022-11-29T07:50:24.292Z,86.36
2022-11-29T07:52:51.141Z,86.98
2022-11-29T07:55:21.221Z,86.62
2022-11-29T07:57:49.058Z,86.80
2022-11-29T08:00:18.344Z,86.84
2022-11-29T08:02:46.096Z,87.41
2022-11-29T08:05:12.977Z,87.94
2022-11-29T08:07:41.339Z,88.27
2022-11-29T08:10:12.022Z,87.61
2022-11-29T08:12:43.943Z,88.00
2022-11-29T08:15:10.909Z,88.02
2022-11-29T08:17:39.046Z,88.41
2022-11-29T08:20:07.074Z,88.35
2022-11-29T08:22:34.884Z,87.46
2022-11-29T08:25:02.144Z,88.31
2022-11-29T08:27:30.926Z,88.17
2022-11-29T08:29:59.995Z,87.99
2022-11-29T08:32:27.560Z,88.73
2022-11-29T08:34:54.612Z,88.33
2022-11-29T08:37:21.542Z,88.70
2022-11-29T08:39:48.261Z,89.07
2022-11-29T08:42:15.034Z,88.93
2022-11-29T08:44:41.831Z,88.89
2022-11-29T08:47:28.934Z,88.62
2022-11-29T08:50:01.592Z,88.63
2022-11-29T08:52:52.752Z,88.68
2022-11-29T08:55:21.814Z,88.28
2022-11-29T08:57:50.501Z,88.54
2022-11-29T09:00:18.580Z,88.80
2022-11-29T09:02:45.431Z,87.39
2022-11-29T09:05:40.056Z,87.80
2022-11-29T09:08:08.380Z,87.38
2022-11-29T09:10:35.123Z,87.94
2022-11-29T09:13:01.826Z,88.07
2022-11-29T09:15:28.548Z,88.58
2022-11-29T09:17:55.365Z,88.85
2022-11-29T09:20:22.051Z,87.88
2022-11-29T09:22:48.906Z,87.86
2022-11-29T09:25:15.665Z,87.82
2022-11-29T09:27:42.480Z,87.78
2022-11-29T09:30:09.708Z,87.87
2022-11-29T09:32:36.472Z,86.85
2022-11-29T09:35:03.206Z,86.78
2022-11-29T09:37:30.018Z,86.29
2022-11-29T09:39:56.761Z,86.17
2022-11-29T09:42:45.331Z,85.63
2022-11-29T09:45:20.166Z,84.15
2022-11-29T09:47:52.772Z,83.65
2022-11-29T09:50:35.204Z,84.22
2022-11-29T09:53:22.287Z,84.49
2022-11-29T09:56:12.472Z,82.24
2022-11-29T09:58:48.650Z,79.89
2022-11-29T10:01:28.742Z,80.40
2022-11-29T10:04:00.982Z,80.76
2022-11-29T10:06:57.040Z,81.22
2022-11-29T10:09:58.962Z,82.41
2022-11-29T10:12:42.897Z,82.77
2022-11-29T10:15:21.340Z,83.33
2022-11-29T10:17:50.845Z,85.39
2022-11-29T10:20:22.797Z,85.69
2022-11-29T10:23:11.395Z,86.24
2022-11-29T10:25:46.807Z,86.71
2022-11-29T10:28:18.838Z,86.53
2022-11-29T10:30:46.278Z,87.20
2022-11-29T10:33:20.886Z,87.03
2022-11-29T10:35:51.006Z,86.75
2022-11-29T10:38:33.017Z,86.88
2022-11-29T10:41:16.851Z,86.87
2022-11-29T10:43:43.781Z,86.01
2022-11-29T10:46:21.467Z,85.84
2022-11-29T10:48:48.603Z,83.82
2022-11-29T10:51:17.501Z,84.22
2022-11-29T10:53:45.944Z,85.79
2022-11-29T10:56:29.472Z,85.66
2022-11-29T10:58:58.294Z,85.52
2022-11-29T11:01:28.998Z,85.81
2022-11-29T11:03:58.803Z,85.54
2022-11-29T11:06:49.607Z,85.10
2022-11-29T11:09:34.641Z,84.96
2022-11-29T11:12:04.646Z,84.85
2022-11-29T11:14:38.083Z,85.27
2022-11-29T11:17:30.133Z,86.03
2022-11-29T11:20:04.548Z,85.82
2022-11-29T11:22:33.427Z,85.98
2022-11-29T11:25:04.251Z,86.03
2022-11-29T11:27:42.261Z,86.32
2022-11-29T11:30:22.491Z,85.80
2022-11-29T11:33:17.194Z,86.34
2022-11-29T11:35:44.056Z,86.39
2022-11-29T11:38:17.870Z,86.51
2022-11-29T11:40:45.343Z,85.93
2022-11-29T11:43:21.873Z,86.11
2022-11-29T11:45:53.578Z,86.78
2022-11-29T11:48:21.101Z,86.86
2022-11-29T11:50:57.882Z,86.03
2022-11-29T11:53:36.741Z,86.38
2022-11-29T11:56:05.317Z,86.13
2022-11-29T11:58:37.756Z,85.65
2022-11-29T12:01:13.600Z,87.32
2022-11-29T12:04:04.815Z,85.70
2022-11-29T12:06:35.815Z,86.02
2022-11-29T12:09:08.541Z,86.46
2022-11-29T12:11:53.539Z,86.29
2022-11-29T12:14:39.297Z,86.43
2022-11-29T12:17:32.494Z,86.37
2022-11-29T12:20:14.405Z,86.22
2022-11-29T12:22:49.291Z,85.59
2022-11-29T12:25:22.805Z,85.74
2022-11-29T12:27:50.859Z,85.46
2022-11-29T12:30:19.215Z,85.46
2022-11-29T12:32:51.698Z,85.71
2022-11-29T12:35:46.489Z,84.09
2022-11-29T12:38:48.554Z,84.20
2022-11-29T12:41:41.320Z,84.54
2022-11-29T12:44:19.381Z,85.22
2022-11-29T12:47:28.204Z,85.24
2022-11-29T12:50:14.015Z,83.75
2022-11-29T12:52:40.851Z,83.85
2022-11-29T12:55:20.662Z,85.65
2022-11-29T12:57:56.883Z,83.43
2022-11-29T13:00:28.941Z,82.63
2022-11-29T13:03:12.293Z,82.26
2022-11-29T13:05:48.722Z,79.75
2022-11-29T13:08:37.423Z,78.23
2022-11-29T13:11:28.586Z,79.25
2022-11-29T13:14:20.243Z,78.35
2022-11-29T13:17:01.859Z,78.89
2022-11-29T13:19:43.583Z,78.70
2022-11-29T13:22:40.013Z,77.61
2022-11-29T13:25:18.537Z,78.62
2022-11-29T13:28:01.855Z,78.69
2022-11-29T13:30:28.885Z,78.35
2022-11-29T13:33:33.365Z,79.00
2022-11-29T13:36:40.230Z,78.62
2022-11-29T13:39:37.779Z,77.80
2022-11-29T13:42:20.844Z,75.21
2022-11-29T13:45:24.125Z,78.43
2022-11-29T13:48:01.735Z,77.07
2022-11-29T13:50:45.011Z,77.29
2022-11-29T13:53:23.608Z,76.17
2022-11-29T13:56:02.633Z,75.47
2022-11-29T13:58:30.602Z,75.50
2022-11-29T14:01:26.754Z,76.26
2022-11-29T14:04:03.124Z,76.72
2022-11-29T14:06:38.137Z,76.89
2022-11-29T14:09:20.916Z,76.74
2022-11-29T14:11:50.202Z,78.08
2022-11-29T14:14:16.958Z,77.93
2022-11-29T14:16:43.766Z,78.54
2022-11-29T14:19:10.506Z,78.03
2022-11-29T14:21:56.356Z,78.67
2022-11-29T14:24:32.532Z,77.12
2022-11-29T14:27:14.178Z,77.46
2022-11-29T14:29:50.172Z,78.79
2022-11-29T14:32:35.887Z,80.63
2022-11-29T14:35:21.555Z,80.35
2022-11-29T14:37:51.272Z,80.49
2022-11-29T14:40:42.911Z,79.82
2022-11-29T14:43:30.983Z,80.63
2022-11-29T14:46:32.184Z,79.15
2022-11-29T14:49:01.539Z,77.70
2022-11-29T14:51:31.628Z,78.14
2022-11-29T14:54:19.687Z,78.81
2022-11-29T14:56:47.496Z,79.22
2022-11-29T15:00:02.534Z,80.91
2022-11-29T15:02:37.992Z,81.75
2022-11-29T15:05:27.950Z,81.58
2022-11-29T15:08:13.300Z,81.24
2022-11-29T15:10:43.328Z,81.41
2022-11-29T15:13:18.968Z,82.01
2022-11-29T15:16:31.394Z,80.98
2022-11-29T15:19:16.107Z,81.59
2022-11-29T15:21:45.585Z,82.01
2022-11-29T15:24:16.125Z,82.08
2022-11-29T15:26:59.265Z,82.16
2022-11-29T15:29:27.776Z,82.68
2022-11-29T15:31:57.955Z,82.50
2022-11-29T15:34:36.208Z,82.57
2022-11-29T15:37:03.803Z,83.19
2022-11-29T15:39:34.317Z,83.09
2022-11-29T15:42:12.995Z,83.24
2022-11-29T15:44:47.297Z,83.01
2022-11-29T15:47:15.997Z,83.14
2022-11-29T15:49:42.841Z,83.16
2022-11-29T15:52:20.329Z,82.96
2022-11-29T15:54:56.696Z,83.07
2022-11-29T15:57:35.412Z,82.57
2022-11-29T16:00:06.019Z,83.60
2022-11-29T16:02:37.099Z,83.70
2022-11-29T16:05:26.764Z,82.39
2022-11-29T16:08:00.602Z,82.20
2022-11-29T16:10:50.430Z,82.30
2022-11-29T16:13:37.047Z,82.11
2022-11-29T16:16:12.173Z,82.07
2022-11-29T16:18:41.477Z,82.24
2022-11-29T16:21:31.512Z,82.28
2022-11-29T16:23:58.950Z,82.66
2022-11-29T16:26:45.722Z,82.90
2022-11-29T16:29:21.406Z,82.77
2022-11-29T16:31:48.314Z,83.01
2022-11-29T16:34:27.828Z,82.35
2022-11-29T16:37:14.384Z,81.74
2022-11-29T16:39:45.857Z,81.80
2022-11-29T16:42:21.921Z,82.16
2022-11-29T16:45:32.313Z,81.81
2022-11-29T16:48:00.237Z,81.98
2022-11-29T16:50:30.896Z,82.53
2022-11-29T16:53:52.993Z,82.48
2022-11-29T16:56:28.139Z,81.72
2022-11-29T16:59:17.034Z,82.38
2022-11-29T17:01:51.251Z,82.73
2022-11-29T17:04:23.541Z,82.28
2022-11-29T17:06:52.801Z,81.91
2022-11-29T17:09:23.284Z,81.60
2022-11-29T17:11:50.239Z,81.43
2022-11-29T17:14:19.947Z,81.61
2022-11-29T17:16:49.943Z,81.87
2022-11-29T17:19:17.204Z,82.51
2022-11-29T17:21:44.725Z,82.30
2022-11-29T17:24:13.767Z,81.79
2022-11-29T17:26:41.368Z,82.82
2022-11-29T17:29:10.713Z,82.85
2022-11-29T17:31:37.564Z,83.05
2022-11-29T17:34:05.044Z,83.04
2022-11-29T17:36:32.801Z,83.36
2022-11-29T17:39:00.257Z,83.53
2022-11-29T17:41:28.311Z,82.93
2022-11-29T17:43:57.125Z,83.94
2022-11-29T17:46:26.619Z,83.92
2022-11-29T17:48:54.308Z,83.77
2022-11-29T17:51:50.560Z,83.42
2022-11-29T17:54:10.938Z,82.55
2022-11-29T17:56:37.969Z,82.14
2022-11-29T17:59:05.020Z,83.03
2022-11-29T18:01:34.839Z,82.67
2022-11-29T18:04:03.575Z,82.76
2022-11-29T18:06:35.964Z,82.82
2022-11-29T18:09:04.905Z,82.55
2022-11-29T18:11:46.467Z,83.11
2022-11-29T18:14:18.101Z,82.84
2022-11-29T18:16:45.733Z,81.86
2022-11-29T18:19:15.354Z,81.92
2022-11-29T18:21:42.446Z,82.63
2022-11-29T18:24:09.764Z,82.38
2022-11-29T18:26:37.929Z,81.77
2022-11-29T18:29:05.995Z,83.03
2022-11-29T18:31:38.154Z,82.79
2022-11-29T18:34:07.330Z,83.05
2022-11-29T18:36:40.093Z,82.23
2022-11-29T18:39:14.124Z,83.04
2022-11-29T18:41:45.554Z,83.58
2022-11-29T18:44:14.660Z,83.51
2022-11-29T18:46:43.922Z,83.59
2022-11-29T18:49:13.264Z,83.36
2022-11-29T18:51:42.824Z,83.34
2022-11-29T18:54:12.195Z,83.56
2022-11-29T18:56:39.265Z,83.92
2022-11-29T18:59:11.801Z,83.73
2022-11-29T19:01:42.809Z,83.71
2022-11-29T19:04:13.405Z,83.03
2022-11-29T19:06:41.174Z,82.00
2022-11-29T19:09:12.703Z,82.80
2022-11-29T19:11:41.086Z,83.94
2022-11-29T19:14:13.321Z,83.67
2022-11-29T19:16:46.679Z,83.81
2022-11-29T19:19:13.773Z,83.26
2022-11-29T19:21:40.977Z,83.12
2022-11-29T19:24:15.944Z,83.17
2022-11-29T19:26:45.673Z,82.63
2022-11-29T19:29:16.402Z,83.34
2022-11-29T19:31:43.634Z,83.81
2022-11-29T19:34:11.066Z,83.61
2022-11-29T19:36:43.661Z,83.55
2022-11-29T19:39:13.071Z,83.10
2022-11-29T19:41:43.045Z,83.62
2022-11-29T19:44:10.497Z,83.41
2022-11-29T19:46:40.890Z,84.35
2022-11-29T19:49:09.219Z,84.34
2022-11-29T19:51:37.139Z,84.81
2022-11-29T19:54:06.578Z,84.87
2022-11-29T19:56:33.731Z,84.64
2022-11-29T19:59:00.605Z,84.39
2022-11-29T20:01:40.194Z,84.41
2022-11-29T20:04:09.924Z,84.73
2022-11-29T20:06:37.131Z,84.50
2022-11-29T20:09:04.392Z,83.88
2022-11-29T20:11:31.378Z,83.94
2022-11-29T20:14:01.017Z,84.57
2022-11-29T20:16:30.000Z,84.07
2022-11-29T20:18:58.060Z,84.98
2022-11-29T20:21:32.891Z,84.44
2022-11-29T20:24:02.673Z,85.10
2022-11-29T20:26:34.748Z,84.70
2022-11-29T20:29:02.398Z,84.08
2022-11-29T20:31:30.177Z,83.59
2022-11-29T20:33:57.726Z,84.00
2022-11-29T20:36:40.392Z,84.79
2022-11-29T20:39:32.152Z,84.51
2022-11-29T20:42:31.607Z,83.88
2022-11-29T20:45:00.927Z,83.92
2022-11-29T20:47:32.797Z,84.27
2022-11-29T20:49:59.955Z,84.50
2022-11-29T20:52:53.392Z,84.29
2022-11-29T20:55:20.926Z,84.94
2022-11-29T20:57:48.197Z,85.12
2022-11-29T21:00:16.244Z,84.49
2022-11-29T21:02:43.312Z,85.09
2022-11-29T21:05:10.662Z,84.91
2022-11-29T21:07:37.586Z,84.59
2022-11-29T21:10:05.882Z,84.31
2022-11-29T21:12:33.596Z,85.20
2022-11-29T21:15:01.001Z,86.00
2022-11-29T21:17:33.531Z,85.84
2022-11-29T21:20:02.029Z,85.84
2022-11-29T21:22:47.070Z,85.16
2022-11-29T21:25:25.818Z,84.66
2022-11-29T21:27:55.027Z,84.16
2022-11-29T21:30:25.375Z,84.45
2022-11-29T21:32:55.625Z,84.79
2022-11-29T21:35:22.852Z,83.62
2022-11-29T21:37:54.767Z,83.27
2022-11-29T21:40:22.164Z,83.96
2022-11-29T21:42:49.122Z,84.22
2022-11-29T21:45:16.684Z,84.63
2022-11-29T21:47:44.400Z,84.58
2022-11-29T21:50:15.278Z,84.72
2022-11-29T21:52:43.742Z,84.45
2022-11-29T21:55:10.981Z,84.74
2022-11-29T21:57:39.058Z,84.15
2022-11-29T22:00:06.941Z,84.50
2022-11-29T22:02:33.837Z,83.99
2022-11-29T22:05:00.733Z,83.63
2022-11-29T22:07:27.538Z,83.82
2022-11-29T22:09:54.409Z,83.75
2022-11-29T22:12:34.301Z,82.34
2022-11-29T22:15:01.878Z,83.18
2022-11-29T22:17:28.692Z,83.85
2022-11-29T22:19:55.679Z,83.37
2022-11-29T22:22:23.141Z,83.20
2022-11-29T22:24:51.984Z,82.99
2022-11-29T22:27:20.638Z,82.41
2022-11-29T22:29:47.520Z,82.12
2022-11-29T22:32:17.160Z,82.37
2022-11-29T22:34:44.389Z,82.47
2022-11-29T22:37:12.591Z,81.84
2022-11-29T22:39:41.975Z,84.09
2022-11-29T22:42:08.932Z,83.97
2022-11-29T22:44:38.826Z,83.67
2022-11-29T22:47:05.701Z,83.06
2022-11-29T22:49:33.369Z,82.83
2022-11-29T22:52:00.702Z,82.19
2022-11-29T22:54:27.669Z,81.76
2022-11-29T22:56:54.602Z,82.72
2022-11-29T22:59:21.379Z,83.13
2022-11-29T23:01:48.530Z,83.03
2022-11-29T23:04:15.785Z,83.82
2022-11-29T23:06:45.127Z,84.55
2022-11-29T23:09:16.675Z,84.35
2022-11-29T23:11:45.073Z,86.25
2022-11-29T23:14:12.471Z,84.80
2022-11-29T23:16:39.450Z,84.88
2022-11-29T23:19:06.290Z,84.65
2022-11-29T23:21:35.658Z,85.04
2022-11-29T23:24:03.048Z,85.00
2022-11-29T23:26:39.722Z,84.69
2022-11-29T23:29:08.901Z,85.54
2022-11-29T23:31:35.650Z,84.94
2022-11-29T23:34:03.366Z,83.82
2022-11-29T23:36:30.618Z,83.93
2022-11-29T23:38:57.529Z,84.54
2022-11-29T23:41:24.446Z,84.64
2022-11-29T23:43:51.347Z,85.81
2022-11-29T23:46:23.463Z,86.53
2022-11-29T23:48:51.033Z,86.32
2022-11-29T23:51:19.271Z,86.08
2022-11-29T23:53:50.309Z,86.47
2022-11-29T23:56:21.111Z,85.96
2022-11-29T23:58:48.856Z,85.69
